createdAt,value
2023-04-18T00:01:09.721Z,17.10
2023-04-18T00:03:40.565Z,17.10
2023-04-18T00:06:08.743Z,17.10
2023-04-18T00:08:36.720Z,17.10
2023-04-18T00:11:04.792Z,17.10
2023-04-18T00:13:32.756Z,17.00
2023-04-18T00:16:01.801Z,17.10
2023-04-18T00:18:29.792Z,17.00
2023-04-18T00:20:59.360Z,17.00
2023-04-18T00:23:28.282Z,17.00
2023-04-18T00:25:56.242Z,17.00
2023-04-18T00:28:24.221Z,17.00
2023-04-18T00:30:52.339Z,17.00
2023-04-18T00:33:20.330Z,17.00
2023-04-18T00:35:48.282Z,17.00
2023-04-18T00:38:17.623Z,17.00
2023-04-18T00:40:45.595Z,17.00
2023-04-18T00:43:14.754Z,17.00
2023-04-18T00:45:42.868Z,17.00
2023-04-18T00:48:12.017Z,17.00
2023-04-18T00:50:41.153Z,17.00
2023-04-18T00:53:10.673Z,17.00
2023-04-18T00:55:41.656Z,17.00
2023-04-18T00:58:10.072Z,17.00
2023-04-18T01:00:38.118Z,17.00
2023-04-18T01:03:06.723Z,17.00
2023-04-18T01:05:35.174Z,17.00
2023-04-18T01:08:04.024Z,17.00
2023-04-18T01:10:32.185Z,17.00
2023-04-18T01:13:15.277Z,17.00
2023-04-18T01:15:44.311Z,17.00
2023-04-18T01:18:13.684Z,17.00
2023-04-18T01:20:45.802Z,17.00
2023-04-18T01:23:13.893Z,17.00
2023-04-18T01:25:43.739Z,17.00
2023-04-18T01:28:13.646Z,17.00
2023-04-18T01:30:42.029Z,17.00
2023-04-18T01:33:09.965Z,17.00
2023-04-18T01:35:37.949Z,16.90
2023-04-18T01:38:05.948Z,16.90
2023-04-18T01:40:33.940Z,17.00
2023-04-18T01:43:03.229Z,16.90
2023-04-18T01:45:31.223Z,16.90
2023-04-18T01:47:59.206Z,16.90
2023-04-18T01:50:27.192Z,16.90
2023-04-18T01:52:57.957Z,16.90
2023-04-18T01:55:25.888Z,16.90
2023-04-18T01:57:53.833Z,16.90
2023-04-18T02:00:23.676Z,16.90
2023-04-18T02:02:51.767Z,16.90
2023-04-18T02:05:20.036Z,16.90
2023-04-18T02:07:50.110Z,16.90
2023-04-18T02:10:19.055Z,16.90
2023-04-18T02:12:47.035Z,16.90
2023-04-18T02:15:15.145Z,16.90
2023-04-18T02:17:45.633Z,16.90
2023-04-18T02:20:14.714Z,16.90
2023-04-18T02:22:42.722Z,16.90
2023-04-18T02:25:11.424Z,16.90
2023-04-18T02:27:39.418Z,16.90
2023-04-18T02:30:08.713Z,16.90
2023-04-18T02:32:36.895Z,16.90
2023-04-18T02:35:07.014Z,16.90
2023-04-18T02:37:34.956Z,16.90
2023-04-18T02:40:02.941Z,16.90
2023-04-18T02:42:30.960Z,16.90
2023-04-18T02:44:59.037Z,16.90
2023-04-18T02:47:27.125Z,16.90
2023-04-18T02:49:55.277Z,16.90
2023-04-18T02:52:25.761Z,16.90
2023-04-18T02:54:53.761Z,16.90
2023-04-18T02:57:21.684Z,16.90
2023-04-18T02:59:49.617Z,16.90
2023-04-18T03:02:17.657Z,16.90
2023-04-18T03:04:46.299Z,16.90
2023-04-18T03:07:14.313Z,16.90
2023-04-18T03:09:43.568Z,16.90
2023-04-18T03:12:11.529Z,16.90
2023-04-18T03:14:39.463Z,16.90
2023-04-18T03:17:07.395Z,16.90
2023-04-18T03:19:35.342Z,16.90
2023-04-18T03:22:03.793Z,16.90
2023-04-18T03:24:31.714Z,16.90
2023-04-18T03:27:01.043Z,16.90
2023-04-18T03:29:28.950Z,17.00
2023-04-18T03:31:56.939Z,17.00
2023-04-18T03:34:25.090Z,17.00
2023-04-18T03:36:53.069Z,17.00
2023-04-18T03:39:21.008Z,17.00
2023-04-18T03:41:49.856Z,17.10
2023-04-18T03:44:19.366Z,17.10
2023-04-18T03:46:47.474Z,17.10
2023-04-18T03:49:15.425Z,17.10
2023-04-18T03:51:45.202Z,17.10
2023-04-18T03:54:13.277Z,17.10
2023-04-18T03:56:41.793Z,17.20
2023-04-18T03:59:09.829Z,17.20
2023-04-18T04:01:39.447Z,17.20
2023-04-18T04:04:09.132Z,17.20
2023-04-18T04:06:37.265Z,17.20
2023-04-18T04:09:05.216Z,17.20
2023-04-18T04:11:33.130Z,17.20
2023-04-18T04:14:01.141Z,17.20
2023-04-18T04:16:29.336Z,17.20
2023-04-18T04:18:58.744Z,17.20
2023-04-18T04:21:27.098Z,17.30
2023-04-18T04:23:55.040Z,17.30
2023-04-18T04:26:23.246Z,17.30
2023-04-18T04:28:51.646Z,17.30
2023-04-18T04:31:19.612Z,17.30
2023-04-18T04:33:47.881Z,17.30
2023-04-18T04:36:19.068Z,17.30
2023-04-18T04:38:47.260Z,17.30
2023-04-18T04:41:15.280Z,17.30
2023-04-18T04:43:43.221Z,17.30
2023-04-18T04:46:13.935Z,17.30
2023-04-18T04:48:42.208Z,17.30
2023-04-18T04:51:10.135Z,17.30
2023-04-18T04:53:40.028Z,17.30
2023-04-18T04:56:09.300Z,17.30
2023-04-18T04:58:37.943Z,17.30
2023-04-18T05:01:07.679Z,17.30
2023-04-18T05:03:36.503Z,17.30
2023-04-18T05:06:05.204Z,17.30
2023-04-18T05:08:33.167Z,17.30
2023-04-18T05:11:02.874Z,17.30
2023-04-18T05:13:30.801Z,17.30
2023-04-18T05:16:00.006Z,17.30
2023-04-18T05:18:27.926Z,17.30
2023-04-18T05:20:56.867Z,17.40
2023-04-18T05:23:24.988Z,17.40
2023-04-18T05:25:53.350Z,17.40
2023-04-18T05:28:24.500Z,17.30
2023-04-18T05:30:52.487Z,17.40
2023-04-18T05:33:20.435Z,17.40
2023-04-18T05:35:48.424Z,17.40
2023-04-18T05:38:16.398Z,17.40
2023-04-18T05:40:44.310Z,17.40
2023-04-18T05:43:12.299Z,17.40
2023-04-18T05:45:41.570Z,17.40
2023-04-18T05:48:09.664Z,17.40
2023-04-18T05:50:37.727Z,17.40
2023-04-18T05:53:05.657Z,17.40
2023-04-18T05:55:34.295Z,17.40
2023-04-18T05:58:02.279Z,17.40
2023-04-18T06:00:30.247Z,17.40
2023-04-18T06:02:59.859Z,17.40
2023-04-18T06:05:28.290Z,17.40
2023-04-18T06:07:56.672Z,17.40
2023-04-18T06:10:24.656Z,17.40
2023-04-18T06:12:52.669Z,17.40
2023-04-18T06:15:20.717Z,17.40
2023-04-18T06:17:48.707Z,17.40
2023-04-18T06:20:18.011Z,17.40
2023-04-18T06:22:45.938Z,17.40
2023-04-18T06:25:13.953Z,17.40
2023-04-18T06:27:41.922Z,17.40
2023-04-18T06:30:10.651Z,17.40
2023-04-18T06:32:39.356Z,17.40
2023-04-18T06:35:07.991Z,17.40
2023-04-18T06:37:37.313Z,17.40
2023-04-18T06:40:05.749Z,17.40
2023-04-18T06:42:33.759Z,17.40
2023-04-18T06:45:02.830Z,17.40
2023-04-18T06:47:31.275Z,17.50
2023-04-18T06:49:59.320Z,17.50
2023-04-18T06:52:27.309Z,17.50
2023-04-18T06:54:56.578Z,17.40
2023-04-18T06:57:24.666Z,17.50
2023-04-18T06:59:52.643Z,17.50
2023-04-18T07:02:20.727Z,17.50
2023-04-18T07:04:49.158Z,17.50
2023-04-18T07:07:17.249Z,17.50
2023-04-18T07:09:45.185Z,17.50
2023-04-18T07:12:14.493Z,17.50
2023-04-18T07:14:42.451Z,17.50
2023-04-18T07:17:10.439Z,17.50
2023-04-18T07:19:38.444Z,17.50
2023-04-18T07:22:06.407Z,17.50
2023-04-18T07:24:34.508Z,17.50
2023-04-18T07:27:03.572Z,17.50
2023-04-18T07:29:33.087Z,17.50
2023-04-18T07:32:01.051Z,17.50
2023-04-18T07:34:30.000Z,17.50
2023-04-18T07:36:58.298Z,17.50
2023-04-18T07:39:26.427Z,17.50
2023-04-18T07:41:54.377Z,17.50
2023-04-18T07:44:22.465Z,17.50
2023-04-18T07:46:52.587Z,17.40
2023-04-18T07:49:20.591Z,17.40
2023-04-18T07:51:48.615Z,17.40
2023-04-18T07:54:16.627Z,17.40
2023-04-18T07:56:44.618Z,17.40
2023-04-18T07:59:12.854Z,17.40
2023-04-18T08:01:40.959Z,17.40
2023-04-18T08:04:10.688Z,17.40
2023-04-18T08:06:38.816Z,17.40
2023-04-18T08:09:06.744Z,17.40
2023-04-18T08:11:35.155Z,17.40
2023-04-18T08:14:03.246Z,17.40
2023-04-18T08:16:31.381Z,17.40
2023-04-18T08:18:59.430Z,17.40
2023-04-18T08:21:28.748Z,17.40
2023-04-18T08:23:56.995Z,17.40
2023-04-18T08:26:24.960Z,17.40
2023-04-18T08:28:52.938Z,17.40
2023-04-18T08:31:20.982Z,17.40
2023-04-18T08:33:48.925Z,17.40
2023-04-18T08:36:17.258Z,17.40
2023-04-18T08:38:46.754Z,17.40
2023-04-18T08:41:16.464Z,17.40
2023-04-18T08:43:49.087Z,17.40
2023-04-18T08:46:17.273Z,17.40
2023-04-18T08:48:46.773Z,17.40
2023-04-18T08:51:14.770Z,17.40
2023-04-18T08:53:45.049Z,17.40
2023-04-18T08:56:16.288Z,17.40
2023-04-18T08:58:45.068Z,17.40
2023-04-18T09:01:13.535Z,17.40
2023-04-18T09:03:44.057Z,17.40
2023-04-18T09:06:16.034Z,17.40
2023-04-18T09:08:44.577Z,17.40
2023-04-18T09:11:28.901Z,17.40
2023-04-18T09:13:59.112Z,17.40
2023-04-18T09:16:28.406Z,17.40
2023-04-18T09:19:13.887Z,17.40
2023-04-18T09:21:44.457Z,17.40
2023-04-18T09:24:24.142Z,17.30
2023-04-18T09:26:55.806Z,17.40
2023-04-18T09:29:24.646Z,17.40
2023-04-18T09:32:03.191Z,17.40
2023-04-18T09:34:33.992Z,17.40
2023-04-18T09:37:10.456Z,17.40
2023-04-18T09:39:39.497Z,17.40
2023-04-18T09:42:10.500Z,17.40
2023-04-18T09:45:02.009Z,17.40
2023-04-18T09:47:30.069Z,17.40
2023-04-18T09:49:58.086Z,17.40
2023-04-18T09:52:26.819Z,17.30
2023-04-18T09:55:01.004Z,17.40
2023-04-18T09:57:32.035Z,17.40
2023-04-18T10:00:13.686Z,17.40
2023-04-18T10:02:50.228Z,17.40
2023-04-18T10:05:21.203Z,17.40
2023-04-18T10:07:51.085Z,17.40
2023-04-18T10:10:19.593Z,17.40
2023-04-18T10:12:50.774Z,17.40
2023-04-18T10:15:21.032Z,17.40
2023-04-18T10:18:03.664Z,17.40
2023-04-18T10:20:35.724Z,17.40
2023-04-18T10:23:37.794Z,17.40
2023-04-18T10:26:06.675Z,17.40
2023-04-18T10:28:54.257Z,17.40
2023-04-18T10:31:23.324Z,17.40
2023-04-18T10:34:04.120Z,17.40
2023-04-18T10:37:05.953Z,17.40
2023-04-18T10:39:49.100Z,17.40
2023-04-18T10:42:17.128Z,17.40
2023-04-18T10:44:45.058Z,17.40
2023-04-18T10:47:23.014Z,17.40
2023-04-18T10:49:58.841Z,17.40
2023-04-18T10:52:28.501Z,17.40
2023-04-18T10:55:05.950Z,17.40
2023-04-18T10:57:44.248Z,17.40
2023-04-18T11:00:15.300Z,17.40
2023-04-18T11:02:53.697Z,17.40
2023-04-18T11:05:24.367Z,17.40
2023-04-18T11:07:55.357Z,17.40
2023-04-18T11:10:25.466Z,17.40
2023-04-18T11:12:54.435Z,17.40
2023-04-18T11:15:24.207Z,17.40
2023-04-18T11:18:00.496Z,17.40
2023-04-18T11:20:29.475Z,17.40
2023-04-18T11:23:01.104Z,17.30
2023-04-18T11:25:30.703Z,17.40
2023-04-18T11:28:01.144Z,17.40
2023-04-18T11:30:31.287Z,17.40
2023-04-18T11:32:59.311Z,17.40
2023-04-18T11:35:27.805Z,17.40
2023-04-18T11:37:56.132Z,17.40
2023-04-18T11:40:25.856Z,17.30
2023-04-18T11:42:55.745Z,17.30
2023-04-18T11:45:23.728Z,17.30
2023-04-18T11:47:58.146Z,17.30
2023-04-18T11:50:27.002Z,17.40
2023-04-18T11:52:55.734Z,17.30
2023-04-18T11:55:27.264Z,17.30
2023-04-18T11:57:56.802Z,17.30
2023-04-18T12:00:33.778Z,17.30
2023-04-18T12:03:02.927Z,17.30
2023-04-18T12:05:32.746Z,17.30
2023-04-18T12:08:07.796Z,17.30
2023-04-18T12:10:37.252Z,17.30
2023-04-18T12:13:09.118Z,17.30
2023-04-18T12:15:40.308Z,17.30
2023-04-18T12:18:09.305Z,17.30
2023-04-18T12:20:38.805Z,17.30
2023-04-18T12:23:07.820Z,17.30
2023-04-18T12:25:37.529Z,17.30
2023-04-18T12:28:15.851Z,17.30
2023-04-18T12:30:43.776Z,17.30
2023-04-18T12:33:11.801Z,17.30
2023-04-18T12:35:39.713Z,17.30
2023-04-18T12:38:07.679Z,17.30
2023-04-18T12:40:39.693Z,17.30
2023-04-18T12:43:08.881Z,17.30
2023-04-18T12:45:36.875Z,17.30
2023-04-18T12:48:05.349Z,17.30
2023-04-18T12:50:33.651Z,17.30
2023-04-18T12:53:02.801Z,17.30
2023-04-18T12:55:30.775Z,17.30
2023-04-18T12:58:00.188Z,17.30
2023-04-18T13:00:30.375Z,17.30
2023-04-18T13:02:59.130Z,17.30
2023-04-18T13:05:31.592Z,17.30
2023-04-18T13:10:32.486Z,17.30
2023-04-18T13:13:01.740Z,17.30
2023-04-18T13:15:29.680Z,17.30
2023-04-18T13:17:57.648Z,17.30
2023-04-18T13:20:25.726Z,17.30
2023-04-18T13:22:53.641Z,17.30
2023-04-18T13:25:21.852Z,17.30
2023-04-18T13:27:50.316Z,17.30
2023-04-18T13:30:19.948Z,17.30
2023-04-18T13:32:48.053Z,17.30
2023-04-18T13:35:16.137Z,17.30
2023-04-18T13:37:44.422Z,17.30
2023-04-18T13:40:13.479Z,17.30
2023-04-18T13:42:41.451Z,17.30
2023-04-18T13:45:09.997Z,17.30
2023-04-18T13:47:39.468Z,17.30
2023-04-18T13:50:08.879Z,17.30
2023-04-18T13:52:36.901Z,17.30
2023-04-18T13:55:05.251Z,17.30
2023-04-18T13:57:33.645Z,17.30
2023-04-18T14:00:02.132Z,17.30
2023-04-18T14:02:30.255Z,17.30
2023-04-18T14:04:59.901Z,17.30
2023-04-18T14:07:28.021Z,17.30
2023-04-18T14:09:56.027Z,17.30
2023-04-18T14:12:24.486Z,17.30
2023-04-18T14:14:55.680Z,17.30
2023-04-18T14:17:23.657Z,17.30
2023-04-18T14:19:51.612Z,17.30
2023-04-18T14:22:21.125Z,17.30
2023-04-18T14:24:49.144Z,17.30
2023-04-18T14:27:17.097Z,17.30
2023-04-18T14:29:45.042Z,17.30
2023-04-18T14:32:13.074Z,17.30
2023-04-18T14:34:41.108Z,17.30
2023-04-18T14:37:09.582Z,17.30
2023-04-18T14:39:38.998Z,17.30
2023-04-18T14:42:07.093Z,17.30
2023-04-18T14:44:51.870Z,17.30
2023-04-18T14:47:19.947Z,17.30
2023-04-18T14:49:47.898Z,17.30
2023-04-18T14:52:15.848Z,17.30
2023-04-18T14:54:45.097Z,17.30
2023-04-18T14:57:13.100Z,17.30
2023-04-18T14:59:41.081Z,17.30
2023-04-18T15:02:09.179Z,17.30
2023-04-18T15:04:37.246Z,17.30
2023-04-18T15:07:05.388Z,17.30
2023-04-18T15:09:37.262Z,17.30
2023-04-18T15:12:08.011Z,17.30
2023-04-18T15:14:36.140Z,17.30
2023-04-18T15:17:04.558Z,17.30
2023-04-18T15:19:32.908Z,17.30
2023-04-18T15:22:00.914Z,17.40
2023-04-18T15:24:28.865Z,17.30
2023-04-18T15:26:57.074Z,17.30
2023-04-18T15:29:26.356Z,17.40
2023-04-18T15:31:54.403Z,17.40
2023-04-18T15:34:22.403Z,17.40
2023-04-18T15:36:50.493Z,17.40
2023-04-18T15:39:21.830Z,17.40
2023-04-18T15:41:53.243Z,17.40
2023-04-18T15:44:21.263Z,17.40
2023-04-18T15:46:51.001Z,17.40
2023-04-18T15:49:18.967Z,17.40
2023-04-18T15:51:46.938Z,17.40
2023-04-18T15:54:15.110Z,17.40
2023-04-18T15:56:44.705Z,17.40
2023-04-18T15:59:13.174Z,17.50
2023-04-18T16:01:42.041Z,17.40
2023-04-18T16:04:12.853Z,17.40
2023-04-18T16:06:41.288Z,17.40
2023-04-18T16:09:09.843Z,17.50
2023-04-18T16:11:37.761Z,17.50
2023-04-18T16:14:05.745Z,17.50
2023-04-18T16:16:34.372Z,17.50
2023-04-18T16:19:02.367Z,17.50
2023-04-18T16:21:32.504Z,17.50
2023-04-18T16:24:00.483Z,17.50
2023-04-18T16:26:28.929Z,17.50
2023-04-18T16:28:57.016Z,17.50
2023-04-18T16:31:25.051Z,17.50
2023-04-18T16:33:53.420Z,17.50
2023-04-18T16:36:21.401Z,17.50
2023-04-18T16:38:51.212Z,17.50
2023-04-18T16:41:19.186Z,17.50
2023-04-18T16:43:47.110Z,17.50
2023-04-18T16:46:15.076Z,17.50
2023-04-18T16:48:44.918Z,17.50
2023-04-18T16:51:13.134Z,17.50
2023-04-18T16:53:41.105Z,17.50
2023-04-18T16:56:10.478Z,17.50
2023-04-18T16:58:38.436Z,17.50
2023-04-18T17:01:08.090Z,17.50
2023-04-18T17:03:36.580Z,17.50
2023-04-18T17:06:05.829Z,17.50
2023-04-18T17:08:34.137Z,17.50
2023-04-18T17:11:02.409Z,17.50
2023-04-18T17:13:32.373Z,17.50
2023-04-18T17:16:00.414Z,17.50
2023-04-18T17:18:29.317Z,17.50
2023-04-18T17:20:57.442Z,17.50
2023-04-18T17:23:25.378Z,17.50
2023-04-18T17:25:53.316Z,17.50
2023-04-18T17:28:23.621Z,17.50
2023-04-18T17:30:52.998Z,17.50
2023-04-18T17:33:21.044Z,17.50
2023-04-18T17:35:48.999Z,17.60
2023-04-18T17:38:17.087Z,17.60
2023-04-18T17:40:45.092Z,17.60
2023-04-18T17:43:13.178Z,17.60
2023-04-18T17:45:41.430Z,17.60
2023-04-18T17:48:10.849Z,17.60
2023-04-18T17:50:38.780Z,17.60
2023-04-18T17:53:06.890Z,17.60
2023-04-18T17:55:34.885Z,17.60
2023-04-18T17:58:02.825Z,17.60
2023-04-18T18:00:31.775Z,17.60
2023-04-18T18:03:01.386Z,17.60
2023-04-18T18:05:31.210Z,17.60
2023-04-18T18:08:02.668Z,17.60
2023-04-18T18:10:37.697Z,17.60
2023-04-18T18:13:05.696Z,17.60
2023-04-18T18:15:34.254Z,17.60
2023-04-18T18:18:02.554Z,17.60
2023-04-18T18:20:32.037Z,17.60
2023-04-18T18:23:00.268Z,17.60
2023-04-18T18:25:28.674Z,17.60
2023-04-18T18:27:56.812Z,17.60
2023-04-18T18:30:24.803Z,17.60
2023-04-18T18:32:53.481Z,17.60
2023-04-18T18:35:21.988Z,17.60
2023-04-18T18:37:51.509Z,17.60
2023-04-18T18:40:19.624Z,17.60
2023-04-18T18:42:49.418Z,17.60
2023-04-18T18:45:17.424Z,17.60
2023-04-18T18:47:46.220Z,17.60
2023-04-18T18:50:14.720Z,17.60
2023-04-18T18:52:43.103Z,17.60
2023-04-18T18:55:12.687Z,17.60
2023-04-18T18:57:40.662Z,17.60
2023-04-18T19:00:12.156Z,17.60
2023-04-18T19:02:40.770Z,17.60
2023-04-18T19:05:09.575Z,17.60
2023-04-18T19:07:37.537Z,17.60
2023-04-18T19:10:06.398Z,17.60
2023-04-18T19:12:35.750Z,17.60
2023-04-18T19:15:03.792Z,17.60
2023-04-18T19:17:32.059Z,17.60
2023-04-18T19:20:01.433Z,17.60
2023-04-18T19:22:29.712Z,17.60
2023-04-18T19:24:58.478Z,17.70
2023-04-18T19:27:27.028Z,17.70
2023-04-18T19:29:56.446Z,17.60
2023-04-18T19:32:24.501Z,17.60
2023-04-18T19:34:52.520Z,17.60
2023-04-18T19:37:20.496Z,17.60
2023-04-18T19:39:48.450Z,17.70
2023-04-18T19:42:16.501Z,17.70
2023-04-18T19:45:01.235Z,17.70
2023-04-18T19:47:33.875Z,17.70
2023-04-18T19:50:02.176Z,17.60
2023-04-18T19:52:30.292Z,17.70
2023-04-18T19:54:58.261Z,17.70
2023-04-18T19:57:27.718Z,17.70
2023-04-18T19:59:55.749Z,17.70
2023-04-18T20:02:25.290Z,17.70
2023-04-18T20:04:53.490Z,17.70
2023-04-18T20:07:21.741Z,17.70
2023-04-18T20:09:50.644Z,17.70
2023-04-18T20:12:18.618Z,17.70
2023-04-18T20:14:47.691Z,17.70
2023-04-18T20:17:15.915Z,17.70
2023-04-18T20:19:47.100Z,17.70
2023-04-18T20:22:15.390Z,17.70
2023-04-18T20:24:45.022Z,17.70
2023-04-18T20:27:13.276Z,17.70
2023-04-18T20:29:41.331Z,17.70
2023-04-18T20:32:09.275Z,17.70
2023-04-18T20:34:37.670Z,17.70
2023-04-18T20:37:09.249Z,17.60
2023-04-18T20:39:38.106Z,17.60
2023-04-18T20:42:06.384Z,17.60
2023-04-18T20:44:35.079Z,17.60
2023-04-18T20:47:03.339Z,17.60
2023-04-18T20:49:31.335Z,17.60
2023-04-18T20:51:59.306Z,17.60
2023-04-18T20:54:28.591Z,17.60
2023-04-18T20:56:56.525Z,17.50
2023-04-18T20:59:24.475Z,17.50
2023-04-18T21:01:52.552Z,17.50
2023-04-18T21:04:22.274Z,17.50
2023-04-18T21:06:50.638Z,17.50
2023-04-18T21:09:18.600Z,17.50
2023-04-18T21:11:47.954Z,17.50
2023-04-18T21:14:17.176Z,17.50
2023-04-18T21:16:45.350Z,17.50
2023-04-18T21:19:13.365Z,17.50
2023-04-18T21:21:41.378Z,17.50
2023-04-18T21:24:10.770Z,17.50
2023-04-18T21:26:38.753Z,17.50
2023-04-18T21:29:08.028Z,17.50
2023-04-18T21:31:36.484Z,17.40
2023-04-18T21:34:06.197Z,17.40
2023-04-18T21:36:34.217Z,17.40
2023-04-18T21:39:04.000Z,17.40
2023-04-18T21:41:32.477Z,17.40
2023-04-18T21:44:00.460Z,17.50
2023-04-18T21:46:29.820Z,17.40
2023-04-18T21:48:57.784Z,17.40
2023-04-18T21:51:27.206Z,17.40
2023-04-18T21:53:55.413Z,17.40
2023-04-18T21:56:23.428Z,17.40
2023-04-18T21:58:51.436Z,17.40
2023-04-18T22:01:19.452Z,17.30
2023-04-18T22:03:48.914Z,17.40
2023-04-18T22:06:17.067Z,17.30
2023-04-18T22:08:45.057Z,17.30
2023-04-18T22:11:13.620Z,17.30
2023-04-18T22:13:44.969Z,17.30
2023-04-18T22:16:13.321Z,17.30
2023-04-18T22:18:41.325Z,17.30
2023-04-18T22:21:10.863Z,17.30
2023-04-18T22:23:38.916Z,17.30
2023-04-18T22:26:07.054Z,17.30
2023-04-18T22:28:35.029Z,17.30
2023-04-18T22:31:03.061Z,17.30
2023-04-18T22:33:31.104Z,17.30
2023-04-18T22:35:59.134Z,17.30
2023-04-18T22:38:28.457Z,17.30
2023-04-18T22:40:56.470Z,17.30
2023-04-18T22:43:24.912Z,17.30
2023-04-18T22:45:57.636Z,17.30
2023-04-18T22:48:25.584Z,17.30
2023-04-18T22:50:53.560Z,17.30
2023-04-18T22:53:21.584Z,17.30
2023-04-18T22:55:50.966Z,17.30
2023-04-18T22:58:18.981Z,17.30
2023-04-18T23:00:46.950Z,17.30
2023-04-18T23:03:14.971Z,17.20
2023-04-18T23:05:45.351Z,17.20
2023-04-18T23:08:14.013Z,17.20
2023-04-18T23:10:42.004Z,17.20
2023-04-18T23:13:11.358Z,17.20
2023-04-18T23:15:39.379Z,17.20
2023-04-18T23:18:07.415Z,17.20
2023-04-18T23:20:36.337Z,17.20
2023-04-18T23:23:04.321Z,17.20
2023-04-18T23:25:34.160Z,17.20
2023-04-18T23:28:04.686Z,17.20
2023-04-18T23:30:37.768Z,17.20
2023-04-18T23:33:06.530Z,17.20
2023-04-18T23:35:34.584Z,17.20
2023-04-18T23:38:02.540Z,17.20
2023-04-18T23:40:30.531Z,17.20
2023-04-18T23:42:58.878Z,17.20
2023-04-18T23:45:28.016Z,17.20
2023-04-18T23:47:57.352Z,17.20
2023-04-18T23:50:25.334Z,17.20
2023-04-18T23:52:53.230Z,17.20
2023-04-18T23:55:21.334Z,17.20
2023-04-18T23:57:52.335Z,17.20
